• Join FlightAware (Why Join?)
  • Login
  • US Flag 
02:25AM EDT


 

Airport Tracker/Info


-or-


 

Live Flight TrackerFlight Track Log ✈ RPA3242 ✈ 14-May-2013 ✈ KPHL - KALB

Flight Track Log - Related Links

Times and Time Zones

All times are in EDT time to prevent confusion due to time zone crossing. See the RPA3242 flight status page for this flight to view local times or setup timezone preferences in your user account.

Time Position Orientation Groundspeed Altitude Reporting Facility
EDT Latitude Longitude Course Direction KTS MPH feet Rate Location/Type
09:19PM 39.8667 -75.2833 37° Northeast 150 173 900  Level Philadelphia TRACON
09:20PM 39.8333 -75.3000 201° Southwest 176 203 2,300 2,520 Climbing Philadelphia TRACON
09:21PM 39.7833 -75.3500 218° Southwest 241 277 5,200 2,880 Climbing Philadelphia TRACON
09:22PM 39.8167 -74.9237 90° East  Level FlightAware Approximate
09:22PM 39.7167 -75.4000 210° Southwest 298 343 8,400  Level Philadelphia TRACON
09:23PM 39.8067 -74.8167 105° East  Level FlightAware Approximate
09:24PM 39.7857 -74.7116 105° East  Level FlightAware Approximate
09:24PM 39.6769 -75.2322 107° East 312 359 12,000  Level New York Center
09:25PM 39.8422 -74.6412 37° Northeast  Level FlightAware Approximate
09:25PM 39.7047 -75.1017 75° East 333 383 12,000  Level New York Center
09:26PM 39.7294 -74.9925 74° East 338 389 12,000 60 Level New York Center
09:27PM 39.7611 -74.8622 72° East 343 395 12,200 1,260 Climbing New York Center
09:28PM 39.7925 -74.7369 72° East 343 395 14,600 2,520 Climbing New York Center
09:29PM 39.8622 -74.6489 44° Northeast 342 394 17,400 2,400 Climbing New York Center
09:30PM 39.9292 -74.5794 38° Northeast 330 380 19,400 2,100 Climbing New York Center
09:31PM 40.0106 -74.5056 35° Northeast 335 386 21,600 2,040 Climbing New York Center
09:32PM 40.1011 -74.4181 36° Northeast 358 412 23,600 1,200 Climbing New York Center
09:33PM 40.1864 -74.3492 32° Northeast 363 418 24,000 180 Climbing New York Center
09:34PM 40.2742 -74.2775 32° Northeast 363 418 24,000  Level New York Center
09:35PM 40.3617 -74.2086 31° Northeast 363 418 24,000  Level New York Center
09:36PM 40.4489 -74.1392 31° Northeast 368 423 24,000  Level New York Center
09:37PM 40.5364 -74.0697 31° Northeast 368 423 24,000  Level New York Center
09:38PM 40.6236 -74.0003 31° Northeast 368 423 24,000  Level New York Center
09:41PM 40.8353 -73.8117 34° Northeast 375 432 24,000 -60 Level Boston Center
09:42PM 40.9156 -73.7117 43° Northeast 380 437 23,900 -420 Descending Boston Center
09:43PM 40.9833 -73.6222 45° Northeast 380 437 23,200 -480 Descending Boston Center
09:44PM 41.0756 -73.5744 21° North 374 430 23,000 -300 Descending Boston Center
09:45PM 41.1672 -73.5844 355° North 323 372 22,600 -720 Descending Boston Center
09:46PM 41.2608 -73.5997 353° North 318 366 21,600 -1,020 Descending Boston Center
09:47PM 41.3564 -73.6153 353° North 334 384 20,600 -1,080 Descending Boston Center
09:48PM 41.4500 -73.6256 355° North 339 390 19,500 -1,200 Descending Boston Center
09:49PM 41.5519 -73.6411 353° North 334 384 18,200 -1,200 Descending Boston Center
09:50PM 41.6436 -73.6542 354° North 334 384 17,200 -1,080 Descending Boston Center
09:51PM 41.7331 -73.6642 355° North 325 374 16,100 -1,080 Descending Boston Center
09:52PM 41.8206 -73.6742 355° North 325 374 15,100 -1,080 Descending Boston Center
09:52PM 41.8517 -73.6858 344° North 322 371 14,700 -1,200 Descending Boston Center
09:52PM 41.8914 -73.6867 359° North 320 368 14,100 -1,020 Descending Boston Center
09:54PM 41.9953 -73.7000 355° North 314 361 13,000 -1,020 Descending Boston Center
09:55PM 42.0847 -73.7128 354° North 314 361 11,900 -1,080 Descending Boston Center
09:56PM 42.1639 -73.7231 355° North 321 369 11,000 -900 Descending Boston Center
09:57PM 42.2469 -73.7386 352° North 284 327 10,100 -1,440 Descending Boston Center
09:58PM 42.3136 -73.7511 352° North 256 295 8,200 -1,980 Descending Boston Center
09:59PM 42.3822 -73.7639 352° North 258 297 6,400 -1,680 Descending Boston Center
10:00PM 42.4528 -73.7822 349° North 255 293 4,800 -1,740 Descending Boston Center
10:01PM 42.5278 -73.7925 354° North 250 288 3,000 -900 Descending Boston Center
10:02PM 42.5922 -73.8022 354° North 227 261 3,000  Level Boston Center